sensor_id;sensor_type;location;lat;lon;timestamp;P1;durP1;ratioP1;P2;durP2;ratioP2
7316;SDS011;3699;51.462;6.696;2024-01-30T00:01:14;16.50;;;11.03;;
7316;SDS011;3699;51.462;6.696;2024-01-30T00:03:41;15.60;;;10.13;;
7316;SDS011;3699;51.462;6.696;2024-01-30T00:06:08;16.53;;;10.60;;
7316;SDS011;3699;51.462;6.696;2024-01-30T00:08:36;15.40;;;10.30;;
7316;SDS011;3699;51.462;6.696;2024-01-30T00:11:03;14.83;;;10.30;;
7316;SDS011;3699;51.462;6.696;2024-01-30T00:13:30;17.17;;;10.80;;
7316;SDS011;3699;51.462;6.696;2024-01-30T00:15:57;16.37;;;10.93;;
7316;SDS011;3699;51.462;6.696;2024-01-30T00:18:23;17.97;;;11.30;;
7316;SDS011;3699;51.462;6.696;2024-01-30T00:20:50;14.50;;;11.13;;
7316;SDS011;3699;51.462;6.696;2024-01-30T00:23:17;21.67;;;11.17;;
7316;SDS011;3699;51.462;6.696;2024-01-30T00:25:45;17.30;;;10.43;;
7316;SDS011;3699;51.462;6.696;2024-01-30T00:28:12;20.63;;;11.80;;
7316;SDS011;3699;51.462;6.696;2024-01-30T00:30:39;16.07;;;11.33;;
7316;SDS011;3699;51.462;6.696;2024-01-30T00:33:06;15.23;;;10.83;;
7316;SDS011;3699;51.462;6.696;2024-01-30T00:35:33;19.07;;;11.27;;
7316;SDS011;3699;51.462;6.696;2024-01-30T00:37:59;18.40;;;11.27;;
7316;SDS011;3699;51.462;6.696;2024-01-30T00:40:26;16.77;;;10.20;;
7316;SDS011;3699;51.462;6.696;2024-01-30T00:42:54;19.13;;;10.80;;
7316;SDS011;3699;51.462;6.696;2024-01-30T00:45:21;18.63;;;11.13;;
7316;SDS011;3699;51.462;6.696;2024-01-30T00:47:48;19.47;;;10.77;;
7316;SDS011;3699;51.462;6.696;2024-01-30T00:50:15;16.80;;;10.80;;
7316;SDS011;3699;51.462;6.696;2024-01-30T00:52:42;19.70;;;12.00;;
7316;SDS011;3699;51.462;6.696;2024-01-30T00:55:10;18.13;;;12.03;;
7316;SDS011;3699;51.462;6.696;2024-01-30T00:57:36;18.53;;;11.17;;
7316;SDS011;3699;51.462;6.696;2024-01-30T01:00:05;17.90;;;10.77;;
7316;SDS011;3699;51.462;6.696;2024-01-30T01:02:35;15.77;;;10.27;;
7316;SDS011;3699;51.462;6.696;2024-01-30T01:05:02;17.60;;;10.93;;
7316;SDS011;3699;51.462;6.696;2024-01-30T01:07:29;17.90;;;11.73;;
7316;SDS011;3699;51.462;6.696;2024-01-30T01:09:56;19.97;;;10.80;;
7316;SDS011;3699;51.462;6.696;2024-01-30T01:12:23;13.47;;;9.50;;
7316;SDS011;3699;51.462;6.696;2024-01-30T01:14:50;17.00;;;10.70;;
7316;SDS011;3699;51.462;6.696;2024-01-30T01:17:18;19.37;;;11.33;;
7316;SDS011;3699;51.462;6.696;2024-01-30T01:19:44;22.60;;;11.37;;
7316;SDS011;3699;51.462;6.696;2024-01-30T01:22:11;15.80;;;10.97;;
7316;SDS011;3699;51.462;6.696;2024-01-30T01:24:38;16.70;;;11.07;;
7316;SDS011;3699;51.462;6.696;2024-01-30T01:27:04;14.43;;;10.07;;
7316;SDS011;3699;51.462;6.696;2024-01-30T01:29:31;17.33;;;11.37;;
7316;SDS011;3699;51.462;6.696;2024-01-30T01:31:58;16.73;;;11.20;;
7316;SDS011;3699;51.462;6.696;2024-01-30T01:34:26;17.43;;;10.93;;
7316;SDS011;3699;51.462;6.696;2024-01-30T01:36:53;16.57;;;11.33;;
7316;SDS011;3699;51.462;6.696;2024-01-30T01:39:20;15.53;;;10.80;;
7316;SDS011;3699;51.462;6.696;2024-01-30T01:41:48;18.33;;;11.10;;
7316;SDS011;3699;51.462;6.696;2024-01-30T01:44:15;17.23;;;11.10;;
7316;SDS011;3699;51.462;6.696;2024-01-30T01:46:42;16.83;;;11.00;;
7316;SDS011;3699;51.462;6.696;2024-01-30T01:49:08;20.37;;;11.03;;
7316;SDS011;3699;51.462;6.696;2024-01-30T01:51:37;15.43;;;11.37;;
7316;SDS011;3699;51.462;6.696;2024-01-30T01:54:06;19.10;;;11.40;;
7316;SDS011;3699;51.462;6.696;2024-01-30T01:56:33;15.93;;;10.80;;
7316;SDS011;3699;51.462;6.696;2024-01-30T01:59:05;17.17;;;11.50;;
7316;SDS011;3699;51.462;6.696;2024-01-30T02:01:33;19.73;;;10.50;;
7316;SDS011;3699;51.462;6.696;2024-01-30T02:04:00;18.67;;;11.50;;
7316;SDS011;3699;51.462;6.696;2024-01-30T02:06:30;20.43;;;11.23;;
7316;SDS011;3699;51.462;6.696;2024-01-30T02:08:59;16.77;;;10.83;;
7316;SDS011;3699;51.462;6.696;2024-01-30T02:11:26;20.07;;;11.93;;
7316;SDS011;3699;51.462;6.696;2024-01-30T02:13:54;18.27;;;10.23;;
7316;SDS011;3699;51.462;6.696;2024-01-30T02:16:21;19.43;;;11.53;;
7316;SDS011;3699;51.462;6.696;2024-01-30T02:18:47;16.73;;;10.83;;
7316;SDS011;3699;51.462;6.696;2024-01-30T02:21:15;18.67;;;11.60;;
7316;SDS011;3699;51.462;6.696;2024-01-30T02:23:43;18.30;;;11.93;;
7316;SDS011;3699;51.462;6.696;2024-01-30T02:26:10;19.20;;;11.30;;
7316;SDS011;3699;51.462;6.696;2024-01-30T02:28:37;18.20;;;10.97;;
7316;SDS011;3699;51.462;6.696;2024-01-30T02:31:04;20.20;;;11.57;;
7316;SDS011;3699;51.462;6.696;2024-01-30T02:33:31;24.80;;;11.60;;
7316;SDS011;3699;51.462;6.696;2024-01-30T02:35:58;17.87;;;11.83;;
7316;SDS011;3699;51.462;6.696;2024-01-30T02:38:26;19.03;;;12.20;;
7316;SDS011;3699;51.462;6.696;2024-01-30T02:40:53;19.57;;;10.73;;
7316;SDS011;3699;51.462;6.696;2024-01-30T02:43:20;19.30;;;11.60;;
7316;SDS011;3699;51.462;6.696;2024-01-30T02:45:47;19.67;;;11.17;;
7316;SDS011;3699;51.462;6.696;2024-01-30T02:48:14;17.43;;;10.37;;
7316;SDS011;3699;51.462;6.696;2024-01-30T02:50:40;15.00;;;10.77;;
7316;SDS011;3699;51.462;6.696;2024-01-30T02:53:07;15.23;;;10.50;;
7316;SDS011;3699;51.462;6.696;2024-01-30T02:55:35;16.70;;;10.10;;
7316;SDS011;3699;51.462;6.696;2024-01-30T02:58:02;19.87;;;11.77;;
7316;SDS011;3699;51.462;6.696;2024-01-30T03:00:29;21.87;;;11.80;;
7316;SDS011;3699;51.462;6.696;2024-01-30T03:02:55;15.47;;;10.43;;
7316;SDS011;3699;51.462;6.696;2024-01-30T03:05:22;17.70;;;11.57;;
7316;SDS011;3699;51.462;6.696;2024-01-30T03:07:49;18.40;;;10.90;;
7316;SDS011;3699;51.462;6.696;2024-01-30T03:10:16;16.57;;;10.50;;
7316;SDS011;3699;51.462;6.696;2024-01-30T03:12:44;20.27;;;11.30;;
7316;SDS011;3699;51.462;6.696;2024-01-30T03:15:11;15.37;;;9.93;;
7316;SDS011;3699;51.462;6.696;2024-01-30T03:17:38;18.03;;;11.27;;
7316;SDS011;3699;51.462;6.696;2024-01-30T03:20:05;24.07;;;12.00;;
7316;SDS011;3699;51.462;6.696;2024-01-30T03:22:32;17.67;;;10.80;;
7316;SDS011;3699;51.462;6.696;2024-01-30T03:24:59;16.80;;;11.03;;
7316;SDS011;3699;51.462;6.696;2024-01-30T03:27:26;22.90;;;11.37;;
7316;SDS011;3699;51.462;6.696;2024-01-30T03:29:54;14.37;;;10.17;;
7316;SDS011;3699;51.462;6.696;2024-01-30T03:32:20;16.20;;;10.47;;
7316;SDS011;3699;51.462;6.696;2024-01-30T03:34:47;21.53;;;10.33;;
7316;SDS011;3699;51.462;6.696;2024-01-30T03:37:14;17.50;;;10.07;;
7316;SDS011;3699;51.462;6.696;2024-01-30T03:39:41;18.97;;;10.90;;
7316;SDS011;3699;51.462;6.696;2024-01-30T03:42:07;16.37;;;10.17;;
7316;SDS011;3699;51.462;6.696;2024-01-30T03:44:34;17.33;;;10.97;;
7316;SDS011;3699;51.462;6.696;2024-01-30T03:47:03;17.07;;;11.00;;
7316;SDS011;3699;51.462;6.696;2024-01-30T03:49:29;17.83;;;9.93;;
7316;SDS011;3699;51.462;6.696;2024-01-30T03:51:56;15.63;;;10.33;;
7316;SDS011;3699;51.462;6.696;2024-01-30T03:54:23;20.80;;;10.87;;
7316;SDS011;3699;51.462;6.696;2024-01-30T03:56:49;16.53;;;10.60;;
7316;SDS011;3699;51.462;6.696;2024-01-30T03:59:16;20.07;;;11.20;;
7316;SDS011;3699;51.462;6.696;2024-01-30T04:01:47;16.33;;;10.20;;
7316;SDS011;3699;51.462;6.696;2024-01-30T04:04:15;18.80;;;10.87;;
7316;SDS011;3699;51.462;6.696;2024-01-30T04:06:42;18.87;;;10.93;;
7316;SDS011;3699;51.462;6.696;2024-01-30T04:09:08;16.53;;;10.73;;
7316;SDS011;3699;51.462;6.696;2024-01-30T04:11:36;17.47;;;11.03;;
7316;SDS011;3699;51.462;6.696;2024-01-30T04:14:03;15.73;;;9.63;;
7316;SDS011;3699;51.462;6.696;2024-01-30T04:16:29;19.33;;;10.57;;
7316;SDS011;3699;51.462;6.696;2024-01-30T04:18:56;19.23;;;9.93;;
7316;SDS011;3699;51.462;6.696;2024-01-30T04:21:25;19.13;;;9.93;;
7316;SDS011;3699;51.462;6.696;2024-01-30T04:23:52;15.60;;;9.67;;
7316;SDS011;3699;51.462;6.696;2024-01-30T04:26:19;18.67;;;10.83;;
7316;SDS011;3699;51.462;6.696;2024-01-30T04:28:46;16.63;;;10.77;;
7316;SDS011;3699;51.462;6.696;2024-01-30T04:31:13;19.60;;;11.07;;
7316;SDS011;3699;51.462;6.696;2024-01-30T04:33:39;15.23;;;10.07;;
7316;SDS011;3699;51.462;6.696;2024-01-30T04:36:08;17.10;;;10.07;;
7316;SDS011;3699;51.462;6.696;2024-01-30T04:38:37;18.70;;;10.63;;
7316;SDS011;3699;51.462;6.696;2024-01-30T04:41:04;19.87;;;10.53;;
7316;SDS011;3699;51.462;6.696;2024-01-30T04:43:31;16.90;;;9.83;;
7316;SDS011;3699;51.462;6.696;2024-01-30T04:45:58;17.67;;;11.07;;
7316;SDS011;3699;51.462;6.696;2024-01-30T04:48:25;22.07;;;11.30;;
7316;SDS011;3699;51.462;6.696;2024-01-30T04:50:51;20.20;;;10.97;;
7316;SDS011;3699;51.462;6.696;2024-01-30T04:53:18;19.47;;;10.43;;
7316;SDS011;3699;51.462;6.696;2024-01-30T04:55:46;20.43;;;11.40;;
7316;SDS011;3699;51.462;6.696;2024-01-30T04:58:13;24.40;;;10.60;;
7316;SDS011;3699;51.462;6.696;2024-01-30T05:00:40;19.03;;;11.67;;
7316;SDS011;3699;51.462;6.696;2024-01-30T05:03:06;17.83;;;11.17;;
7316;SDS011;3699;51.462;6.696;2024-01-30T05:05:33;18.07;;;11.40;;
7316;SDS011;3699;51.462;6.696;2024-01-30T05:08:00;21.93;;;12.63;;
7316;SDS011;3699;51.462;6.696;2024-01-30T05:10:26;27.63;;;13.13;;
7316;SDS011;3699;51.462;6.696;2024-01-30T05:12:56;21.53;;;12.00;;
7316;SDS011;3699;51.462;6.696;2024-01-30T05:15:22;21.00;;;11.43;;
7316;SDS011;3699;51.462;6.696;2024-01-30T05:17:49;21.30;;;11.60;;
7316;SDS011;3699;51.462;6.696;2024-01-30T05:20:16;21.97;;;11.17;;
7316;SDS011;3699;51.462;6.696;2024-01-30T05:22:43;15.03;;;10.13;;
7316;SDS011;3699;51.462;6.696;2024-01-30T05:25:10;19.83;;;11.93;;
7316;SDS011;3699;51.462;6.696;2024-01-30T05:27:38;23.03;;;10.97;;
7316;SDS011;3699;51.462;6.696;2024-01-30T05:30:07;22.57;;;11.93;;
7316;SDS011;3699;51.462;6.696;2024-01-30T05:32:34;21.17;;;11.30;;
7316;SDS011;3699;51.462;6.696;2024-01-30T05:35:00;18.50;;;11.83;;
7316;SDS011;3699;51.462;6.696;2024-01-30T05:37:28;20.53;;;10.87;;
7316;SDS011;3699;51.462;6.696;2024-01-30T05:39:54;19.13;;;10.73;;
7316;SDS011;3699;51.462;6.696;2024-01-30T05:42:21;17.57;;;10.30;;
7316;SDS011;3699;51.462;6.696;2024-01-30T05:44:48;19.27;;;10.47;;
7316;SDS011;3699;51.462;6.696;2024-01-30T05:47:16;19.53;;;10.73;;
7316;SDS011;3699;51.462;6.696;2024-01-30T05:49:43;19.03;;;10.53;;
7316;SDS011;3699;51.462;6.696;2024-01-30T05:52:09;16.10;;;9.87;;
7316;SDS011;3699;51.462;6.696;2024-01-30T05:54:36;17.03;;;10.67;;
7316;SDS011;3699;51.462;6.696;2024-01-30T05:57:03;18.40;;;9.83;;
7316;SDS011;3699;51.462;6.696;2024-01-30T05:59:30;21.00;;;10.80;;
7316;SDS011;3699;51.462;6.696;2024-01-30T06:01:56;26.23;;;10.80;;
7316;SDS011;3699;51.462;6.696;2024-01-30T06:04:25;17.00;;;10.30;;
7316;SDS011;3699;51.462;6.696;2024-01-30T06:06:51;21.07;;;10.87;;
7316;SDS011;3699;51.462;6.696;2024-01-30T06:09:18;18.40;;;11.07;;
7316;SDS011;3699;51.462;6.696;2024-01-30T06:11:45;17.50;;;10.60;;
7316;SDS011;3699;51.462;6.696;2024-01-30T06:14:11;20.53;;;10.37;;
7316;SDS011;3699;51.462;6.696;2024-01-30T06:16:38;19.03;;;11.07;;
7316;SDS011;3699;51.462;6.696;2024-01-30T06:19:05;19.33;;;10.63;;
7316;SDS011;3699;51.462;6.696;2024-01-30T06:21:33;18.93;;;11.40;;
7316;SDS011;3699;51.462;6.696;2024-01-30T06:24:01;19.97;;;11.40;;
7316;SDS011;3699;51.462;6.696;2024-01-30T06:26:28;20.20;;;11.57;;
7316;SDS011;3699;51.462;6.696;2024-01-30T06:28:55;19.23;;;11.40;;
7316;SDS011;3699;51.462;6.696;2024-01-30T06:31:22;17.90;;;11.20;;
7316;SDS011;3699;51.462;6.696;2024-01-30T06:33:49;17.73;;;10.83;;
7316;SDS011;3699;51.462;6.696;2024-01-30T06:36:16;15.83;;;11.10;;
7316;SDS011;3699;51.462;6.696;2024-01-30T06:38:44;21.47;;;11.27;;
7316;SDS011;3699;51.462;6.696;2024-01-30T06:41:11;19.10;;;10.70;;
7316;SDS011;3699;51.462;6.696;2024-01-30T06:43:37;19.13;;;12.00;;
7316;SDS011;3699;51.462;6.696;2024-01-30T06:46:04;23.80;;;10.80;;
7316;SDS011;3699;51.462;6.696;2024-01-30T06:48:31;18.50;;;11.10;;
7316;SDS011;3699;51.462;6.696;2024-01-30T06:50:57;20.10;;;10.60;;
7316;SDS011;3699;51.462;6.696;2024-01-30T06:53:24;19.30;;;10.97;;
7316;SDS011;3699;51.462;6.696;2024-01-30T06:55:53;21.67;;;10.43;;
7316;SDS011;3699;51.462;6.696;2024-01-30T06:58:19;22.27;;;10.87;;
7316;SDS011;3699;51.462;6.696;2024-01-30T07:00:46;19.03;;;10.07;;
7316;SDS011;3699;51.462;6.696;2024-01-30T07:03:13;21.47;;;11.63;;
7316;SDS011;3699;51.462;6.696;2024-01-30T07:05:39;18.37;;;10.30;;
7316;SDS011;3699;51.462;6.696;2024-01-30T07:08:06;20.50;;;10.90;;
7316;SDS011;3699;51.462;6.696;2024-01-30T07:10:33;22.00;;;11.23;;
7316;SDS011;3699;51.462;6.696;2024-01-30T07:13:01;19.40;;;10.40;;
7316;SDS011;3699;51.462;6.696;2024-01-30T07:15:29;18.33;;;10.67;;
7316;SDS011;3699;51.462;6.696;2024-01-30T07:17:56;19.67;;;10.40;;
7316;SDS011;3699;51.462;6.696;2024-01-30T07:20:22;22.53;;;10.93;;
7316;SDS011;3699;51.462;6.696;2024-01-30T07:22:49;21.93;;;11.43;;
7316;SDS011;3699;51.462;6.696;2024-01-30T07:25:16;29.63;;;11.10;;
7316;SDS011;3699;51.462;6.696;2024-01-30T07:27:43;20.97;;;10.57;;
7316;SDS011;3699;51.462;6.696;2024-01-30T07:30:11;16.57;;;10.27;;
7316;SDS011;3699;51.462;6.696;2024-01-30T07:32:38;18.77;;;11.33;;
7316;SDS011;3699;51.462;6.696;2024-01-30T07:35:05;17.67;;;11.07;;
7316;SDS011;3699;51.462;6.696;2024-01-30T07:37:32;17.83;;;11.37;;
7316;SDS011;3699;51.462;6.696;2024-01-30T07:39:59;30.00;;;12.37;;
7316;SDS011;3699;51.462;6.696;2024-01-30T07:42:26;19.43;;;10.90;;
7316;SDS011;3699;51.462;6.696;2024-01-30T07:44:53;16.20;;;10.20;;
7316;SDS011;3699;51.462;6.696;2024-01-30T07:47:21;16.00;;;10.63;;
7316;SDS011;3699;51.462;6.696;2024-01-30T07:49:48;21.37;;;10.73;;
7316;SDS011;3699;51.462;6.696;2024-01-30T07:52:15;23.77;;;11.77;;
7316;SDS011;3699;51.462;6.696;2024-01-30T07:54:41;19.97;;;10.63;;
7316;SDS011;3699;51.462;6.696;2024-01-30T07:57:08;16.67;;;9.27;;
7316;SDS011;3699;51.462;6.696;2024-01-30T07:59:35;19.50;;;10.23;;
7316;SDS011;3699;51.462;6.696;2024-01-30T08:02:02;18.47;;;10.77;;
7316;SDS011;3699;51.462;6.696;2024-01-30T08:04:30;18.33;;;10.10;;
7316;SDS011;3699;51.462;6.696;2024-01-30T08:06:56;17.80;;;9.73;;
7316;SDS011;3699;51.462;6.696;2024-01-30T08:09:23;18.30;;;10.57;;
7316;SDS011;3699;51.462;6.696;2024-01-30T08:11:50;19.60;;;11.33;;
7316;SDS011;3699;51.462;6.696;2024-01-30T08:14:17;22.57;;;11.50;;
7316;SDS011;3699;51.462;6.696;2024-01-30T08:16:43;16.07;;;10.73;;
7316;SDS011;3699;51.462;6.696;2024-01-30T08:19:10;22.57;;;12.40;;
7316;SDS011;3699;51.462;6.696;2024-01-30T08:21:38;20.07;;;11.07;;
7316;SDS011;3699;51.462;6.696;2024-01-30T08:24:05;24.63;;;11.47;;
7316;SDS011;3699;51.462;6.696;2024-01-30T08:26:33;18.07;;;10.10;;
7316;SDS011;3699;51.462;6.696;2024-01-30T08:29:00;25.47;;;11.83;;
7316;SDS011;3699;51.462;6.696;2024-01-30T08:31:27;16.50;;;10.63;;
7316;SDS011;3699;51.462;6.696;2024-01-30T08:33:54;23.07;;;11.60;;
7316;SDS011;3699;51.462;6.696;2024-01-30T08:36:20;18.10;;;11.50;;
7316;SDS011;3699;51.462;6.696;2024-01-30T08:38:48;19.17;;;12.03;;
7316;SDS011;3699;51.462;6.696;2024-01-30T08:41:15;24.03;;;11.33;;
7316;SDS011;3699;51.462;6.696;2024-01-30T08:43:42;16.07;;;10.77;;
7316;SDS011;3699;51.462;6.696;2024-01-30T08:46:09;26.73;;;13.30;;
7316;SDS011;3699;51.462;6.696;2024-01-30T08:48:36;21.83;;;12.40;;
7316;SDS011;3699;51.462;6.696;2024-01-30T08:51:03;27.67;;;14.20;;
7316;SDS011;3699;51.462;6.696;2024-01-30T08:53:33;23.40;;;13.33;;
7316;SDS011;3699;51.462;6.696;2024-01-30T08:56:01;22.53;;;13.10;;
7316;SDS011;3699;51.462;6.696;2024-01-30T08:58:28;26.70;;;14.70;;
7316;SDS011;3699;51.462;6.696;2024-01-30T09:00:55;28.53;;;14.53;;
7316;SDS011;3699;51.462;6.696;2024-01-30T09:03:22;25.90;;;14.53;;
7316;SDS011;3699;51.462;6.696;2024-01-30T09:05:49;21.77;;;13.10;;
7316;SDS011;3699;51.462;6.696;2024-01-30T09:08:15;22.33;;;12.30;;
7316;SDS011;3699;51.462;6.696;2024-01-30T09:10:42;21.97;;;12.47;;
7316;SDS011;3699;51.462;6.696;2024-01-30T09:13:10;18.87;;;10.83;;
7316;SDS011;3699;51.462;6.696;2024-01-30T09:15:37;18.37;;;10.90;;
7316;SDS011;3699;51.462;6.696;2024-01-30T09:18:04;17.77;;;10.77;;
7316;SDS011;3699;51.462;6.696;2024-01-30T09:20:32;15.90;;;10.40;;
7316;SDS011;3699;51.462;6.696;2024-01-30T09:22:58;15.63;;;10.10;;
7316;SDS011;3699;51.462;6.696;2024-01-30T09:25:25;18.77;;;9.73;;
7316;SDS011;3699;51.462;6.696;2024-01-30T09:27:52;16.70;;;10.10;;
7316;SDS011;3699;51.462;6.696;2024-01-30T09:30:20;15.73;;;9.87;;
7316;SDS011;3699;51.462;6.696;2024-01-30T09:32:47;14.53;;;10.30;;
7316;SDS011;3699;51.462;6.696;2024-01-30T09:35:13;15.13;;;10.33;;
7316;SDS011;3699;51.462;6.696;2024-01-30T09:37:40;18.57;;;10.20;;
7316;SDS011;3699;51.462;6.696;2024-01-30T09:40:07;15.67;;;10.20;;
7316;SDS011;3699;51.462;6.696;2024-01-30T09:42:35;15.70;;;10.43;;
7316;SDS011;3699;51.462;6.696;2024-01-30T09:45:03;14.10;;;10.13;;
7316;SDS011;3699;51.462;6.696;2024-01-30T09:47:32;20.37;;;10.30;;
7316;SDS011;3699;51.462;6.696;2024-01-30T09:50:06;15.57;;;9.90;;
7316;SDS011;3699;51.462;6.696;2024-01-30T09:52:33;16.83;;;10.43;;
7316;SDS011;3699;51.462;6.696;2024-01-30T09:55:00;15.70;;;9.80;;
7316;SDS011;3699;51.462;6.696;2024-01-30T09:57:27;17.30;;;10.90;;
7316;SDS011;3699;51.462;6.696;2024-01-30T09:59:54;19.40;;;10.10;;
7316;SDS011;3699;51.462;6.696;2024-01-30T10:02:21;15.73;;;9.90;;
7316;SDS011;3699;51.462;6.696;2024-01-30T10:04:50;16.30;;;10.57;;
7316;SDS011;3699;51.462;6.696;2024-01-30T10:07:17;15.90;;;9.97;;
7316;SDS011;3699;51.462;6.696;2024-01-30T10:09:44;13.40;;;9.30;;
7316;SDS011;3699;51.462;6.696;2024-01-30T10:12:11;17.80;;;10.17;;
7316;SDS011;3699;51.462;6.696;2024-01-30T10:14:39;14.20;;;9.53;;
7316;SDS011;3699;51.462;6.696;2024-01-30T10:17:07;12.50;;;9.67;;
7316;SDS011;3699;51.462;6.696;2024-01-30T10:19:34;15.70;;;9.53;;
7316;SDS011;3699;51.462;6.696;2024-01-30T10:22:03;11.63;;;9.07;;
7316;SDS011;3699;51.462;6.696;2024-01-30T10:24:30;16.07;;;10.33;;
7316;SDS011;3699;51.462;6.696;2024-01-30T10:26:57;18.80;;;10.27;;
7316;SDS011;3699;51.462;6.696;2024-01-30T10:29:23;16.80;;;10.23;;
7316;SDS011;3699;51.462;6.696;2024-01-30T10:32:00;17.87;;;10.93;;
7316;SDS011;3699;51.462;6.696;2024-01-30T10:34:27;15.87;;;10.80;;
7316;SDS011;3699;51.462;6.696;2024-01-30T10:36:59;14.27;;;10.30;;
7316;SDS011;3699;51.462;6.696;2024-01-30T10:39:32;15.93;;;11.30;;
7316;SDS011;3699;51.462;6.696;2024-01-30T10:42:04;19.90;;;9.97;;
7316;SDS011;3699;51.462;6.696;2024-01-30T10:44:34;20.60;;;10.93;;
7316;SDS011;3699;51.462;6.696;2024-01-30T10:47:06;21.47;;;11.33;;
7316;SDS011;3699;51.462;6.696;2024-01-30T10:49:37;15.37;;;10.10;;
7316;SDS011;3699;51.462;6.696;2024-01-30T10:52:05;16.33;;;10.97;;
7316;SDS011;3699;51.462;6.696;2024-01-30T10:54:35;14.53;;;10.70;;
7316;SDS011;3699;51.462;6.696;2024-01-30T10:57:04;15.70;;;10.73;;
7316;SDS011;3699;51.462;6.696;2024-01-30T10:59:31;18.87;;;11.53;;
7316;SDS011;3699;51.462;6.696;2024-01-30T11:01:59;23.43;;;12.10;;
7316;SDS011;3699;51.462;6.696;2024-01-30T11:04:26;18.10;;;10.67;;
7316;SDS011;3699;51.462;6.696;2024-01-30T11:06:53;17.77;;;11.40;;
7316;SDS011;3699;51.462;6.696;2024-01-30T11:09:20;15.63;;;11.40;;
7316;SDS011;3699;51.462;6.696;2024-01-30T11:11:52;17.70;;;12.23;;
7316;SDS011;3699;51.462;6.696;2024-01-30T11:14:24;18.07;;;10.53;;
7316;SDS011;3699;51.462;6.696;2024-01-30T11:16:52;19.33;;;11.63;;
7316;SDS011;3699;51.462;6.696;2024-01-30T11:19:22;14.63;;;10.53;;
7316;SDS011;3699;51.462;6.696;2024-01-30T11:21:50;14.33;;;9.87;;
7316;SDS011;3699;51.462;6.696;2024-01-30T11:24:19;18.73;;;10.00;;
7316;SDS011;3699;51.462;6.696;2024-01-30T11:26:47;16.37;;;9.67;;
7316;SDS011;3699;51.462;6.696;2024-01-30T11:29:16;17.47;;;10.23;;
7316;SDS011;3699;51.462;6.696;2024-01-30T11:31:51;17.50;;;11.17;;
7316;SDS011;3699;51.462;6.696;2024-01-30T11:34:18;19.17;;;10.03;;
7316;SDS011;3699;51.462;6.696;2024-01-30T11:36:46;15.87;;;9.60;;
7316;SDS011;3699;51.462;6.696;2024-01-30T11:39:20;17.13;;;9.87;;
7316;SDS011;3699;51.462;6.696;2024-01-30T11:41:46;18.37;;;10.37;;
7316;SDS011;3699;51.462;6.696;2024-01-30T11:44:18;16.70;;;10.57;;
7316;SDS011;3699;51.462;6.696;2024-01-30T11:46:46;20.13;;;11.47;;
7316;SDS011;3699;51.462;6.696;2024-01-30T11:49:12;19.47;;;9.93;;
7316;SDS011;3699;51.462;6.696;2024-01-30T11:51:39;18.03;;;10.00;;
7316;SDS011;3699;51.462;6.696;2024-01-30T11:54:07;13.73;;;8.87;;
7316;SDS011;3699;51.462;6.696;2024-01-30T11:56:34;14.30;;;9.63;;
7316;SDS011;3699;51.462;6.696;2024-01-30T11:59:00;22.20;;;9.73;;
7316;SDS011;3699;51.462;6.696;2024-01-30T12:01:28;23.37;;;11.20;;
7316;SDS011;3699;51.462;6.696;2024-01-30T12:03:56;14.80;;;9.63;;
7316;SDS011;3699;51.462;6.696;2024-01-30T12:06:23;16.03;;;9.83;;
7316;SDS011;3699;51.462;6.696;2024-01-30T12:08:59;15.73;;;9.33;;
7316;SDS011;3699;51.462;6.696;2024-01-30T12:11:29;22.77;;;10.80;;
7316;SDS011;3699;51.462;6.696;2024-01-30T12:13:56;13.63;;;8.77;;
7316;SDS011;3699;51.462;6.696;2024-01-30T12:16:23;14.40;;;9.03;;
7316;SDS011;3699;51.462;6.696;2024-01-30T12:18:58;18.93;;;9.73;;
7316;SDS011;3699;51.462;6.696;2024-01-30T12:21:26;19.63;;;10.17;;
7316;SDS011;3699;51.462;6.696;2024-01-30T12:23:52;14.60;;;9.10;;
7316;SDS011;3699;51.462;6.696;2024-01-30T12:26:19;16.77;;;10.63;;
7316;SDS011;3699;51.462;6.696;2024-01-30T12:28:49;15.13;;;9.53;;
7316;SDS011;3699;51.462;6.696;2024-01-30T12:31:16;16.77;;;9.10;;
7316;SDS011;3699;51.462;6.696;2024-01-30T12:33:43;12.73;;;8.90;;
7316;SDS011;3699;51.462;6.696;2024-01-30T12:36:12;16.50;;;9.03;;
7316;SDS011;3699;51.462;6.696;2024-01-30T12:38:39;20.13;;;9.60;;
7316;SDS011;3699;51.462;6.696;2024-01-30T12:41:07;20.30;;;9.90;;
7316;SDS011;3699;51.462;6.696;2024-01-30T12:43:35;12.60;;;9.07;;
7316;SDS011;3699;51.462;6.696;2024-01-30T12:46:03;19.70;;;9.07;;
7316;SDS011;3699;51.462;6.696;2024-01-30T12:48:30;13.97;;;8.97;;
7316;SDS011;3699;51.462;6.696;2024-01-30T12:50:57;15.73;;;8.90;;
7316;SDS011;3699;51.462;6.696;2024-01-30T12:53:25;15.10;;;9.23;;
7316;SDS011;3699;51.462;6.696;2024-01-30T12:55:52;16.60;;;8.53;;
7316;SDS011;3699;51.462;6.696;2024-01-30T12:58:19;13.50;;;9.47;;
7316;SDS011;3699;51.462;6.696;2024-01-30T13:00:46;21.47;;;9.03;;
7316;SDS011;3699;51.462;6.696;2024-01-30T13:03:13;16.17;;;8.40;;
7316;SDS011;3699;51.462;6.696;2024-01-30T13:05:42;16.90;;;8.53;;
7316;SDS011;3699;51.462;6.696;2024-01-30T13:08:09;17.97;;;8.43;;
7316;SDS011;3699;51.462;6.696;2024-01-30T13:10:37;15.00;;;9.03;;
7316;SDS011;3699;51.462;6.696;2024-01-30T13:13:04;16.83;;;8.60;;
7316;SDS011;3699;51.462;6.696;2024-01-30T13:15:30;16.20;;;8.77;;
7316;SDS011;3699;51.462;6.696;2024-01-30T13:17:57;14.37;;;9.53;;
7316;SDS011;3699;51.462;6.696;2024-01-30T13:20:24;16.73;;;8.60;;
7316;SDS011;3699;51.462;6.696;2024-01-30T13:22:51;16.53;;;8.67;;
7316;SDS011;3699;51.462;6.696;2024-01-30T13:25:17;12.17;;;8.03;;
7316;SDS011;3699;51.462;6.696;2024-01-30T13:27:45;11.93;;;7.43;;
7316;SDS011;3699;51.462;6.696;2024-01-30T13:30:12;14.40;;;8.20;;
7316;SDS011;3699;51.462;6.696;2024-01-30T13:32:39;15.33;;;9.03;;
7316;SDS011;3699;51.462;6.696;2024-01-30T13:35:09;14.77;;;7.07;;
7316;SDS011;3699;51.462;6.696;2024-01-30T13:37:36;13.03;;;7.57;;
7316;SDS011;3699;51.462;6.696;2024-01-30T13:40:03;12.40;;;8.17;;
7316;SDS011;3699;51.462;6.696;2024-01-30T13:42:32;13.53;;;8.50;;
7316;SDS011;3699;51.462;6.696;2024-01-30T13:45:01;21.83;;;7.70;;
7316;SDS011;3699;51.462;6.696;2024-01-30T13:47:27;15.87;;;7.80;;
7316;SDS011;3699;51.462;6.696;2024-01-30T13:49:54;11.80;;;7.63;;
7316;SDS011;3699;51.462;6.696;2024-01-30T13:52:22;15.47;;;8.40;;
7316;SDS011;3699;51.462;6.696;2024-01-30T13:54:48;12.47;;;7.67;;
7316;SDS011;3699;51.462;6.696;2024-01-30T13:57:15;12.83;;;7.57;;
7316;SDS011;3699;51.462;6.696;2024-01-30T13:59:42;12.90;;;8.00;;
7316;SDS011;3699;51.462;6.696;2024-01-30T14:02:10;15.70;;;7.47;;
7316;SDS011;3699;51.462;6.696;2024-01-30T14:04:37;12.57;;;8.07;;
7316;SDS011;3699;51.462;6.696;2024-01-30T14:07:04;14.10;;;7.87;;
7316;SDS011;3699;51.462;6.696;2024-01-30T14:09:32;13.80;;;7.77;;
7316;SDS011;3699;51.462;6.696;2024-01-30T14:11:59;11.70;;;7.57;;
7316;SDS011;3699;51.462;6.696;2024-01-30T14:14:26;12.60;;;8.00;;
7316;SDS011;3699;51.462;6.696;2024-01-30T14:16:55;14.87;;;8.47;;
7316;SDS011;3699;51.462;6.696;2024-01-30T14:19:23;12.90;;;8.10;;
7316;SDS011;3699;51.462;6.696;2024-01-30T14:21:50;13.03;;;7.60;;
7316;SDS011;3699;51.462;6.696;2024-01-30T14:24:17;10.73;;;7.20;;
7316;SDS011;3699;51.462;6.696;2024-01-30T14:26:43;16.93;;;8.20;;
7316;SDS011;3699;51.462;6.696;2024-01-30T14:29:10;11.37;;;7.63;;
7316;SDS011;3699;51.462;6.696;2024-01-30T14:31:37;10.43;;;7.17;;
7316;SDS011;3699;51.462;6.696;2024-01-30T14:34:04;13.57;;;7.30;;
7316;SDS011;3699;51.462;6.696;2024-01-30T14:36:32;11.80;;;7.57;;
7316;SDS011;3699;51.462;6.696;2024-01-30T14:38:58;13.23;;;7.00;;
7316;SDS011;3699;51.462;6.696;2024-01-30T14:41:25;11.13;;;5.80;;
7316;SDS011;3699;51.462;6.696;2024-01-30T14:43:53;12.60;;;6.27;;
7316;SDS011;3699;51.462;6.696;2024-01-30T14:46:20;10.37;;;5.30;;
7316;SDS011;3699;51.462;6.696;2024-01-30T14:48:47;7.93;;;5.00;;
7316;SDS011;3699;51.462;6.696;2024-01-30T14:51:16;15.43;;;4.97;;